Delta Ios — SVAK9 — position and weather

sailwx.info

Track history (hours):
 
Tides and Currents Weather Stations Pressure Air Temp Water Temp Dewpoint Dewpoint Depression Visibility Wind Speed Wind Dir Waves Ship Positions

Delta Ios

Last reported at 2016-Feb-12 22:32 UTC. Time now 2016-Feb-12 22:34 UTC.
Position S 30°01' E 030°58'.

Length 276 m; draft 14.7 m.

Type: Ship. MMSI: 240821000.

Date/timePositionNaut miles runAvg speedWind from/ knotsBaromVisibWave heightAir tempDewpointWater temp
2016-Feb-12 22:32S 30°01' E 030°58'0 0.0
2016-Feb-12 21:32S 30°01' E 030°58'0 0.0
2016-Feb-12 20:26S 30°01' E 030°58'0 0.0
2016-Feb-12 19:32S 30°01' E 030°58'0 0.0
2016-Feb-12 18:32S 30°01' E 030°58'0 0.0
2016-Feb-12 17:32S 30°01' E 030°58'0 0.0
2016-Feb-12 16:29S 30°01' E 030°58'0 0.0
2016-Feb-12 15:32S 30°01' E 030°58'0 0.5
2016-Feb-12 14:34S 30°01' E 030°58'3 2.9
2016-Feb-12 13:34S 29°60' E 031°01'0 0.5
2016-Feb-12 12:33S 29°60' E 031°02'3 2.6
2016-Feb-12 11:34S 29°58' E 031°04'5 5.5
2016-Feb-12 10:33S 29°54' E 031°08'7 6.6
2016-Feb-12 09:34S 29°48' E 031°11'1 0.9
2016-Feb-12 08:31S 29°47' E 031°11'0 0.0
2016-Feb-12 07:31S 29°47' E 031°11'0 0.0
2016-Feb-12 06:31S 29°47' E 031°11'0 0.0
2016-Feb-12 05:31S 29°47' E 031°11'0 0.0
2016-Feb-12 04:31S 29°47' E 031°11'0 0.0
2016-Feb-12 03:31S 29°47' E 031°11'0 0.0
2016-Feb-12 02:31S 29°47' E 031°11'0 0.0
2016-Feb-12 01:31S 29°47' E 031°11'0 0.0
2016-Feb-12 00:31S 29°47' E 031°11'0 0.0
2016-Feb-11 23:31S 29°47' E 031°11'0 0.0
2016-Feb-11 22:31S 29°47' E 031°11'0 0.0
2016-Feb-11 21:28S 29°47' E 031°11'0 0.0
2016-Feb-11 20:31S 29°47' E 031°11'0 0.0
2016-Feb-11 19:31S 29°47' E 031°11'0 0.1
2016-Feb-11 18:31S 29°47' E 031°11'0 0.0
2016-Feb-11 17:31S 29°47' E 031°11'0 0.0
2016-Feb-11 16:31S 29°47' E 031°11'0 0.0
2016-Feb-11 15:31S 29°47' E 031°11'0 0.0
2016-Feb-11 14:31S 29°47' E 031°11'0 0.0
2016-Feb-11 13:31S 29°47' E 031°11'0 0.0
2016-Feb-11 12:31S 29°47' E 031°11'0 0.0
2016-Feb-11 11:31S 29°47' E 031°11'0 0.0
2016-Feb-11 10:31S 29°47' E 031°11'0 0.0
2016-Feb-11 09:31S 29°47' E 031°11'0 0.0
2016-Feb-11 08:31S 29°47' E 031°11'0 0.0
2016-Feb-11 07:31S 29°47' E 031°11'0 0.0
2016-Feb-11 06:31S 29°47' E 031°11'0 0.0
2016-Feb-11 05:31S 29°47' E 031°11'0 0.0
2016-Feb-11 04:31S 29°47' E 031°11'0 0.0
2016-Feb-11 03:31S 29°47' E 031°11'0 0.0
2016-Feb-11 02:31S 29°47' E 031°11'0 0.0
2016-Feb-11 01:31S 29°47' E 031°11'0 0.0
2016-Feb-11 00:31S 29°47' E 031°11'0 0.0
2016-Feb-10 23:31S 29°47' E 031°11'0 0.0
2016-Feb-10 22:31S 29°47' E 031°11'0 0.0
2016-Feb-10 21:31S 29°47' E 031°11'0 0.0
2016-Feb-10 20:31S 29°47' E 031°11'0 0.0
2016-Feb-10 19:31S 29°47' E 031°11'0 0.0
2016-Feb-10 18:31S 29°47' E 031°11'0 0.0
2016-Feb-10 17:31S 29°47' E 031°11'0 0.0
2016-Feb-10 16:31S 29°47' E 031°11'0 0.0
2016-Feb-10 15:31S 29°47' E 031°11'0 0.0
2016-Feb-10 14:28S 29°47' E 031°11'0 0.0
2016-Feb-10 13:31S 29°47' E 031°11'0 0.0
2016-Feb-10 12:31S 29°47' E 031°11'0 0.0
2016-Feb-10 11:31S 29°47' E 031°11'0 0.0
2016-Feb-10 10:31S 29°47' E 031°11'0 0.0
2016-Feb-10 09:31S 29°47' E 031°11'0 0.0
2016-Feb-10 08:31S 29°47' E 031°11'0 0.0
2016-Feb-10 07:31S 29°47' E 031°11'0 0.0
2016-Feb-10 06:25S 29°47' E 031°11'0 0.0
2016-Feb-10 05:31S 29°47' E 031°11'0 0.0
2016-Feb-10 04:31S 29°47' E 031°11'0 0.0
2016-Feb-10 03:25S 29°47' E 031°11'0 0.1
2016-Feb-10 02:31S 29°47' E 031°11'0 0.0
2016-Feb-10 01:31S 29°47' E 031°11'0 0.0
2016-Feb-10 00:31S 29°47' E 031°11'0 0.0
2016-Feb-09 23:31S 29°47' E 031°11'0 0.0
2016-Feb-09 22:31S 29°47' E 031°11'0 0.0
2016-Feb-09 21:31S 29°47' E 031°11'0 0.0
2016-Feb-09 20:31S 29°47' E 031°11'0 0.0
2016-Feb-09 19:31S 29°47' E 031°11'0 0.0
2016-Feb-09 18:31S 29°47' E 031°11'0 0.0
2016-Feb-09 17:31S 29°47' E 031°11'0 0.0
2016-Feb-09 16:31S 29°47' E 031°11'0 0.0
2016-Feb-09 15:31S 29°47' E 031°11'  
2016-Feb-06 19:19S 34°42' E 018°05'4311.3
2016-Feb-06 15:30S 34°03' E 017°42'1311.8
2016-Feb-06 14:23S 33°50' E 017°36'  
Track history (hours):
 
Tides and Currents Weather Stations Pressure Air Temp Water Temp Dewpoint Dewpoint Depression Visibility Wind Speed Wind Dir Waves Ship Positions

Delta Ios

Last reported at 2016-Feb-12 22:32 UTC. Time now 2016-Feb-12 22:34 UTC.
Position S 30°01' E 030°58'.

Length 276 m; draft 14.7 m.

Type: Ship. MMSI: 240821000.

Date/timePositionNaut miles runAvg speedWind from/ knotsBaromVisibWave heightAir tempDewpointWater temp
2016-Feb-12 22:32S 30°01' E 030°58'0 0.0
2016-Feb-12 21:32S 30°01' E 030°58'0 0.0
2016-Feb-12 20:26S 30°01' E 030°58'0 0.0
2016-Feb-12 19:32S 30°01' E 030°58'0 0.0
2016-Feb-12 18:32S 30°01' E 030°58'0 0.0
2016-Feb-12 17:32S 30°01' E 030°58'0 0.0
2016-Feb-12 16:29S 30°01' E 030°58'0 0.0
2016-Feb-12 15:32S 30°01' E 030°58'0 0.5
2016-Feb-12 14:34S 30°01' E 030°58'3 2.9
2016-Feb-12 13:34S 29°60' E 031°01'0 0.5
2016-Feb-12 12:33S 29°60' E 031°02'3 2.6
2016-Feb-12 11:34S 29°58' E 031°04'5 5.5
2016-Feb-12 10:33S 29°54' E 031°08'7 6.6
2016-Feb-12 09:34S 29°48' E 031°11'1 0.9
2016-Feb-12 08:31S 29°47' E 031°11'0 0.0
2016-Feb-12 07:31S 29°47' E 031°11'0 0.0
2016-Feb-12 06:31S 29°47' E 031°11'0 0.0
2016-Feb-12 05:31S 29°47' E 031°11'0 0.0
2016-Feb-12 04:31S 29°47' E 031°11'0 0.0
2016-Feb-12 03:31S 29°47' E 031°11'0 0.0
2016-Feb-12 02:31S 29°47' E 031°11'0 0.0
2016-Feb-12 01:31S 29°47' E 031°11'0 0.0
2016-Feb-12 00:31S 29°47' E 031°11'0 0.0
2016-Feb-11 23:31S 29°47' E 031°11'0 0.0
2016-Feb-11 22:31S 29°47' E 031°11'0 0.0
2016-Feb-11 21:28S 29°47' E 031°11'0 0.0
2016-Feb-11 20:31S 29°47' E 031°11'0 0.0
2016-Feb-11 19:31S 29°47' E 031°11'0 0.1
2016-Feb-11 18:31S 29°47' E 031°11'0 0.0
2016-Feb-11 17:31S 29°47' E 031°11'0 0.0
2016-Feb-11 16:31S 29°47' E 031°11'0 0.0
2016-Feb-11 15:31S 29°47' E 031°11'0 0.0
2016-Feb-11 14:31S 29°47' E 031°11'0 0.0
2016-Feb-11 13:31S 29°47' E 031°11'0 0.0
2016-Feb-11 12:31S 29°47' E 031°11'0 0.0
2016-Feb-11 11:31S 29°47' E 031°11'0 0.0
2016-Feb-11 10:31S 29°47' E 031°11'0 0.0
2016-Feb-11 09:31S 29°47' E 031°11'0 0.0
2016-Feb-11 08:31S 29°47' E 031°11'0 0.0
2016-Feb-11 07:31S 29°47' E 031°11'0 0.0
2016-Feb-11 06:31S 29°47' E 031°11'0 0.0
2016-Feb-11 05:31S 29°47' E 031°11'0 0.0
2016-Feb-11 04:31S 29°47' E 031°11'0 0.0
2016-Feb-11 03:31S 29°47' E 031°11'0 0.0
2016-Feb-11 02:31S 29°47' E 031°11'0 0.0
2016-Feb-11 01:31S 29°47' E 031°11'0 0.0
2016-Feb-11 00:31S 29°47' E 031°11'0 0.0
2016-Feb-10 23:31S 29°47' E 031°11'0 0.0
2016-Feb-10 22:31S 29°47' E 031°11'0 0.0
2016-Feb-10 21:31S 29°47' E 031°11'0 0.0
2016-Feb-10 20:31S 29°47' E 031°11'0 0.0
2016-Feb-10 19:31S 29°47' E 031°11'0 0.0
2016-Feb-10 18:31S 29°47' E 031°11'0 0.0
2016-Feb-10 17:31S 29°47' E 031°11'0 0.0
2016-Feb-10 16:31S 29°47' E 031°11'0 0.0
2016-Feb-10 15:31S 29°47' E 031°11'0 0.0
2016-Feb-10 14:28S 29°47' E 031°11'0 0.0
2016-Feb-10 13:31S 29°47' E 031°11'0 0.0
2016-Feb-10 12:31S 29°47' E 031°11'0 0.0
2016-Feb-10 11:31S 29°47' E 031°11'0 0.0
2016-Feb-10 10:31S 29°47' E 031°11'0 0.0
2016-Feb-10 09:31S 29°47' E 031°11'0 0.0
2016-Feb-10 08:31S 29°47' E 031°11'0 0.0
2016-Feb-10 07:31S 29°47' E 031°11'0 0.0
2016-Feb-10 06:25S 29°47' E 031°11'0 0.0
2016-Feb-10 05:31S 29°47' E 031°11'0 0.0
2016-Feb-10 04:31S 29°47' E 031°11'0 0.0
2016-Feb-10 03:25S 29°47' E 031°11'0 0.1
2016-Feb-10 02:31S 29°47' E 031°11'0 0.0
2016-Feb-10 01:31S 29°47' E 031°11'0 0.0
2016-Feb-10 00:31S 29°47' E 031°11'0 0.0
2016-Feb-09 23:31S 29°47' E 031°11'0 0.0
2016-Feb-09 22:31S 29°47' E 031°11'0 0.0
2016-Feb-09 21:31S 29°47' E 031°11'0 0.0
2016-Feb-09 20:31S 29°47' E 031°11'0 0.0
2016-Feb-09 19:31S 29°47' E 031°11'0 0.0
2016-Feb-09 18:31S 29°47' E 031°11'0 0.0
2016-Feb-09 17:31S 29°47' E 031°11'0 0.0
2016-Feb-09 16:31S 29°47' E 031°11'0 0.0
2016-Feb-09 15:31S 29°47' E 031°11'  
2016-Feb-06 19:19S 34°42' E 018°05'4311.3
2016-Feb-06 15:30S 34°03' E 017°42'1311.8
2016-Feb-06 14:23S 33°50' E 017°36'  

Dump ship's entire track history